createdAt,value
2023-05-19T00:00:04.809Z,18.33
2023-05-19T00:03:14.956Z,16.95
2023-05-19T00:06:24.970Z,16.88
2023-05-19T00:09:28.681Z,14.40
2023-05-19T00:12:32.698Z,15.15
2023-05-19T00:15:36.739Z,14.38
2023-05-19T00:18:40.682Z,13.27
2023-05-19T00:21:45.357Z,15.05
2023-05-19T00:24:49.028Z,15.88
2023-05-19T00:27:52.199Z,15.52
2023-05-19T00:30:56.032Z,14.65
2023-05-19T00:33:59.243Z,13.80
2023-05-19T00:37:03.796Z,13.07
2023-05-19T00:40:08.861Z,16.73
2023-05-19T00:43:12.132Z,19.85
2023-05-19T00:46:15.394Z,16.33
2023-05-19T00:49:18.660Z,16.25
2023-05-19T00:52:23.284Z,22.83
2023-05-19T00:55:29.409Z,16.20
2023-05-19T00:58:34.230Z,14.70
2023-05-19T01:01:37.667Z,19.48
2023-05-19T01:04:43.606Z,16.20
2023-05-19T01:07:53.333Z,19.00
2023-05-19T01:10:57.173Z,17.03
2023-05-19T01:14:00.485Z,14.57
2023-05-19T01:17:09.912Z,15.93
2023-05-19T01:20:18.505Z,14.25
2023-05-19T01:23:36.693Z,19.25
2023-05-19T01:27:10.438Z,14.68
2023-05-19T01:30:28.431Z,17.60
2023-05-19T01:33:33.638Z,16.10
2023-05-19T01:36:38.143Z,18.05
2023-05-19T01:39:45.635Z,19.73
2023-05-19T01:42:49.873Z,17.83
2023-05-19T01:45:55.666Z,21.35
2023-05-19T01:49:00.115Z,15.15
2023-05-19T01:52:03.498Z,15.13
2023-05-19T01:55:07.866Z,20.30
2023-05-19T01:58:18.562Z,17.00
2023-05-19T02:01:37.866Z,24.13
2023-05-19T02:04:46.080Z,18.27
2023-05-19T02:07:58.747Z,13.85
2023-05-19T02:11:09.012Z,20.63
2023-05-19T02:14:16.965Z,17.55
2023-05-19T02:17:23.008Z,18.85
2023-05-19T02:20:26.306Z,19.95
2023-05-19T02:23:29.652Z,19.40
2023-05-19T02:26:33.888Z,16.45
2023-05-19T02:29:39.845Z,20.55
2023-05-19T02:32:46.863Z,19.30
2023-05-19T02:35:50.074Z,14.90
2023-05-19T02:38:53.314Z,17.60
2023-05-19T02:41:57.523Z,19.70
2023-05-19T02:45:01.780Z,23.40
2023-05-19T02:48:07.065Z,15.15
2023-05-19T02:51:10.298Z,18.95
2023-05-19T02:54:30.027Z,19.25
2023-05-19T02:57:34.417Z,16.53
2023-05-19T03:00:37.695Z,17.30
2023-05-19T03:03:42.418Z,18.80
2023-05-19T03:06:46.660Z,24.02
2023-05-19T03:09:49.981Z,18.33
2023-05-19T03:12:53.407Z,25.00
2023-05-19T03:15:57.889Z,16.38
2023-05-19T03:19:02.683Z,20.75
2023-05-19T03:22:06.295Z,18.08
2023-05-19T03:25:11.443Z,18.15
2023-05-19T03:28:15.130Z,19.48
2023-05-19T03:31:18.504Z,17.63
2023-05-19T03:34:23.620Z,16.45
2023-05-19T03:37:27.316Z,14.45
2023-05-19T03:40:30.610Z,14.43
2023-05-19T03:43:40.264Z,15.20
2023-05-19T03:46:44.990Z,15.73
2023-05-19T03:50:09.791Z,22.85
2023-05-19T03:53:24.672Z,16.17
2023-05-19T03:56:30.212Z,15.15
2023-05-19T03:59:33.511Z,15.20
2023-05-19T04:02:36.852Z,20.45
2023-05-19T04:05:41.591Z,16.77
2023-05-19T04:08:45.353Z,16.08
2023-05-19T04:11:49.275Z,19.58
2023-05-19T04:14:52.448Z,17.55
2023-05-19T04:17:55.819Z,17.90
2023-05-19T04:21:00.519Z,20.02
2023-05-19T04:24:06.544Z,16.17
2023-05-19T04:27:12.256Z,19.38
2023-05-19T04:30:22.338Z,19.77
2023-05-19T04:33:29.217Z,20.73
2023-05-19T04:36:34.168Z,26.48
2023-05-19T04:39:42.949Z,18.65
2023-05-19T04:42:46.843Z,20.38
2023-05-19T04:45:51.514Z,20.95
2023-05-19T04:48:57.177Z,20.98
2023-05-19T04:52:02.140Z,23.92
2023-05-19T04:55:07.676Z,24.15
2023-05-19T04:58:11.787Z,24.08
2023-05-19T05:01:15.751Z,18.45
2023-05-19T05:04:22.205Z,19.00
2023-05-19T05:07:28.027Z,18.63
2023-05-19T05:10:35.786Z,17.70
2023-05-19T05:13:39.765Z,27.85
2023-05-19T05:16:44.112Z,46.55
2023-05-19T05:19:51.809Z,21.52
2023-05-19T05:22:57.689Z,23.27
2023-05-19T05:26:08.094Z,22.70
2023-05-19T05:29:12.260Z,18.58
2023-05-19T05:32:16.999Z,23.80
2023-05-19T05:35:23.533Z,19.08
2023-05-19T05:38:28.881Z,19.75
2023-05-19T05:41:35.389Z,20.15
2023-05-19T05:44:44.292Z,42.92
2023-05-19T05:47:48.870Z,20.95
2023-05-19T05:50:54.716Z,21.20
2023-05-19T05:54:03.743Z,24.23
2023-05-19T05:57:12.863Z,18.23
2023-05-19T06:00:17.567Z,16.50
2023-05-19T06:03:27.416Z,21.58
2023-05-19T06:06:32.705Z,28.10
2023-05-19T06:09:39.189Z,20.67
2023-05-19T06:12:44.035Z,30.55
2023-05-19T06:15:48.236Z,20.90
2023-05-19T06:19:08.172Z,16.25
2023-05-19T06:22:11.844Z,19.73
2023-05-19T06:25:16.871Z,16.80
2023-05-19T06:28:20.703Z,18.13
2023-05-19T06:31:26.403Z,15.98
2023-05-19T06:34:32.785Z,17.55
2023-05-19T06:37:36.113Z,12.45
2023-05-19T06:40:41.653Z,14.77
2023-05-19T06:43:44.989Z,13.63
2023-05-19T06:46:50.570Z,15.13
2023-05-19T06:49:56.167Z,12.52
2023-05-19T06:53:03.495Z,14.77
2023-05-19T06:56:09.225Z,16.13
2023-05-19T06:59:16.135Z,14.77
2023-05-19T07:02:21.175Z,15.75
2023-05-19T07:05:24.598Z,14.98
2023-05-19T07:08:32.001Z,14.43
2023-05-19T07:11:39.479Z,13.18
2023-05-19T07:14:43.330Z,11.35
2023-05-19T07:17:47.776Z,13.93
2023-05-19T07:20:52.834Z,13.55
2023-05-19T07:23:57.374Z,13.00
2023-05-19T07:27:01.947Z,11.10
2023-05-19T07:30:05.737Z,10.75
2023-05-19T07:33:08.960Z,11.50
2023-05-19T07:36:12.314Z,11.07
2023-05-19T07:39:15.743Z,12.65
2023-05-19T07:42:20.535Z,17.52
2023-05-19T07:45:23.704Z,21.15
2023-05-19T07:48:26.993Z,13.35
2023-05-19T07:51:30.220Z,11.60
2023-05-19T07:54:33.512Z,13.95
2023-05-19T07:57:38.225Z,11.40
2023-05-19T08:00:43.044Z,13.23
2023-05-19T08:03:46.368Z,11.25
2023-05-19T08:06:50.782Z,11.02
2023-05-19T08:09:54.069Z,10.82
2023-05-19T08:12:58.684Z,10.60
2023-05-19T08:16:01.934Z,11.25
2023-05-19T08:19:05.519Z,11.45
2023-05-19T08:22:08.818Z,11.20
2023-05-19T08:25:12.098Z,10.88
2023-05-19T08:28:16.726Z,12.50
2023-05-19T08:31:20.339Z,21.35
2023-05-19T08:34:23.537Z,11.93
2023-05-19T08:37:26.838Z,12.85
2023-05-19T08:40:31.931Z,14.70
2023-05-19T08:43:36.703Z,14.60
2023-05-19T08:46:40.167Z,12.90
2023-05-19T08:49:46.225Z,13.52
2023-05-19T08:52:53.604Z,15.32
2023-05-19T08:56:02.446Z,12.00
2023-05-19T08:59:08.927Z,13.60
2023-05-19T09:02:14.027Z,14.70
2023-05-19T09:05:18.652Z,15.43
2023-05-19T09:08:22.629Z,17.55
2023-05-19T09:11:26.154Z,15.80
2023-05-19T09:14:31.285Z,15.40
2023-05-19T09:17:35.439Z,15.50
2023-05-19T09:20:40.266Z,16.73
2023-05-19T09:23:48.780Z,17.20
2023-05-19T09:26:52.017Z,13.40
2023-05-19T09:29:56.633Z,9.50
2023-05-19T09:33:01.055Z,11.63
2023-05-19T09:36:06.158Z,12.85
2023-05-19T09:39:16.078Z,12.85
2023-05-19T09:42:26.441Z,12.25
2023-05-19T09:48:34.735Z,14.50
2023-05-19T09:51:38.107Z,10.07
2023-05-19T09:54:41.733Z,18.10
2023-05-19T09:57:46.509Z,13.50
2023-05-19T10:00:52.524Z,11.45
2023-05-19T10:03:56.598Z,12.25
2023-05-19T10:07:00.592Z,10.63
2023-05-19T10:10:04.742Z,13.02
2023-05-19T10:13:09.573Z,17.52
2023-05-19T10:16:16.815Z,12.27
2023-05-19T10:19:22.961Z,14.70
2023-05-19T10:22:26.362Z,16.10
2023-05-19T10:25:31.124Z,13.10
2023-05-19T10:28:38.058Z,17.25
2023-05-19T10:31:44.451Z,14.73
2023-05-19T10:35:10.550Z,16.17
2023-05-19T10:38:23.125Z,16.42
2023-05-19T10:41:30.530Z,15.32
2023-05-19T10:44:47.649Z,17.58
2023-05-19T10:47:53.824Z,38.08
2023-05-19T10:50:58.105Z,31.83
2023-05-19T10:54:03.982Z,14.55
2023-05-19T10:57:08.137Z,17.92
2023-05-19T11:00:31.274Z,14.18
2023-05-19T11:03:46.108Z,15.63
2023-05-19T11:06:53.659Z,21.70
2023-05-19T11:09:58.161Z,30.67
2023-05-19T11:13:01.678Z,21.00
2023-05-19T11:16:09.041Z,15.02
2023-05-19T11:19:20.571Z,15.90
2023-05-19T11:22:26.233Z,15.07
2023-05-19T11:25:43.466Z,15.73
2023-05-19T11:28:48.809Z,17.92
2023-05-19T11:31:52.933Z,18.50
2023-05-19T11:34:58.719Z,17.20
2023-05-19T11:38:03.290Z,16.10
2023-05-19T11:41:06.858Z,15.07
2023-05-19T11:44:12.444Z,17.73
2023-05-19T11:47:16.429Z,19.52
2023-05-19T11:50:21.279Z,20.55
2023-05-19T11:53:26.694Z,19.23
2023-05-19T11:56:35.319Z,23.35
2023-05-19T11:59:43.906Z,18.10
2023-05-19T12:02:47.191Z,18.98
2023-05-19T12:05:52.199Z,23.85
2023-05-19T12:08:56.725Z,21.80
2023-05-19T12:12:00.116Z,16.52
2023-05-19T12:15:04.769Z,17.70
2023-05-19T12:18:08.459Z,23.42
2023-05-19T12:21:13.885Z,21.63
2023-05-19T12:24:17.225Z,26.45
2023-05-19T12:27:23.954Z,22.70
2023-05-19T12:30:28.993Z,30.73
2023-05-19T12:33:35.738Z,87.53
2023-05-19T12:36:42.729Z,22.40
2023-05-19T12:39:46.221Z,22.63
2023-05-19T12:42:52.253Z,25.33
2023-05-19T12:45:55.508Z,24.05
2023-05-19T12:49:00.759Z,18.63
2023-05-19T12:52:10.612Z,17.90
2023-05-19T12:55:29.658Z,25.70
2023-05-19T12:58:42.152Z,30.23
2023-05-19T13:01:45.385Z,22.92
2023-05-19T13:04:48.961Z,24.45
2023-05-19T13:07:57.969Z,19.50
2023-05-19T13:11:01.721Z,16.98
2023-05-19T13:14:04.945Z,16.73
2023-05-19T13:17:08.239Z,24.33
2023-05-19T13:20:12.477Z,18.42
2023-05-19T13:23:17.566Z,21.30
2023-05-19T13:26:21.333Z,16.50
2023-05-19T13:29:24.731Z,19.75
2023-05-19T13:32:27.973Z,25.23
2023-05-19T13:35:36.721Z,20.33
2023-05-19T13:38:41.885Z,19.67
2023-05-19T13:41:45.207Z,21.10
2023-05-19T13:44:48.507Z,19.25
2023-05-19T13:47:51.906Z,21.58
2023-05-19T13:50:55.728Z,22.75
2023-05-19T13:54:00.423Z,20.67
2023-05-19T13:57:03.820Z,22.50
2023-05-19T14:00:08.609Z,20.38
2023-05-19T14:03:19.928Z,21.65
2023-05-19T14:06:23.272Z,33.10
2023-05-19T14:09:29.265Z,41.35
2023-05-19T14:12:45.046Z,77.78
2023-05-19T14:15:56.589Z,27.65
2023-05-19T14:18:59.968Z,27.48
2023-05-19T14:22:03.217Z,23.70
2023-05-19T14:25:09.045Z,28.27
2023-05-19T14:28:12.823Z,28.65
2023-05-19T14:31:16.345Z,23.92
2023-05-19T14:34:21.156Z,24.33
2023-05-19T14:37:26.592Z,28.35
2023-05-19T14:40:31.539Z,20.00
2023-05-19T14:43:34.986Z,22.67
2023-05-19T14:46:38.492Z,19.63
2023-05-19T14:49:41.881Z,22.52
2023-05-19T14:52:47.306Z,22.27
2023-05-19T14:55:52.268Z,20.23
2023-05-19T14:58:55.591Z,19.83
2023-05-19T15:01:59.296Z,18.17
2023-05-19T15:05:02.563Z,19.08
2023-05-19T15:08:06.493Z,21.48
2023-05-19T15:11:11.253Z,18.63
2023-05-19T15:14:14.580Z,25.63
2023-05-19T15:17:18.042Z,25.95
2023-05-19T15:20:21.502Z,61.78
2023-05-19T15:23:24.847Z,25.83
2023-05-19T15:26:29.912Z,35.75
2023-05-19T15:29:33.303Z,25.20
2023-05-19T15:32:37.405Z,27.05
2023-05-19T15:35:41.089Z,30.58
2023-05-19T15:38:46.258Z,22.77
2023-05-19T15:41:54.680Z,24.30
2023-05-19T15:44:58.405Z,25.58
2023-05-19T15:48:02.051Z,21.73
2023-05-19T15:51:05.742Z,23.02
2023-05-19T15:54:09.120Z,28.25
2023-05-19T15:57:14.247Z,26.10
2023-05-19T16:00:18.122Z,26.77
2023-05-19T16:03:22.450Z,28.90
2023-05-19T16:06:28.143Z,28.30
2023-05-19T16:09:31.771Z,28.13
2023-05-19T16:12:36.718Z,32.58
2023-05-19T16:15:43.639Z,28.38
2023-05-19T16:18:50.562Z,29.48
2023-05-19T16:21:53.894Z,25.55
2023-05-19T16:24:57.144Z,26.55
2023-05-19T16:28:02.285Z,31.92
2023-05-19T16:31:05.775Z,24.60
2023-05-19T16:34:08.969Z,27.33
2023-05-19T16:37:12.403Z,27.77
2023-05-19T16:40:15.693Z,26.30
2023-05-19T16:43:20.412Z,35.33
2023-05-19T16:46:23.925Z,29.75
2023-05-19T16:49:27.425Z,25.48
2023-05-19T16:52:31.609Z,27.33
2023-05-19T16:55:35.042Z,29.98
2023-05-19T16:58:39.748Z,31.48
2023-05-19T17:01:43.035Z,25.92
2023-05-19T17:04:46.322Z,25.23
2023-05-19T17:07:49.553Z,29.65
2023-05-19T17:10:52.769Z,29.83
2023-05-19T17:13:58.132Z,26.38
2023-05-19T17:17:01.686Z,29.23
2023-05-19T17:20:05.825Z,26.98
2023-05-19T17:23:09.337Z,29.52
2023-05-19T17:26:12.644Z,27.73
2023-05-19T17:29:17.276Z,31.13
2023-05-19T17:32:25.748Z,27.52
2023-05-19T17:35:29.164Z,27.17
2023-05-19T17:38:32.673Z,29.83
2023-05-19T17:41:37.004Z,27.85
2023-05-19T17:44:41.985Z,100.50
2023-05-19T17:47:45.647Z,35.88
2023-05-19T17:50:49.211Z,29.58
2023-05-19T17:53:55.739Z,23.90
2023-05-19T17:57:03.364Z,30.83
2023-05-19T18:00:10.723Z,27.13
2023-05-19T18:03:18.002Z,28.98
2023-05-19T18:06:22.222Z,25.38
2023-05-19T18:09:29.050Z,29.75
2023-05-19T18:12:32.848Z,29.48
2023-05-19T18:15:37.767Z,27.02
2023-05-19T18:18:43.726Z,31.65
2023-05-19T18:21:47.382Z,32.72
2023-05-19T18:24:51.824Z,31.05
2023-05-19T18:27:55.823Z,32.22
2023-05-19T18:31:05.428Z,32.30
2023-05-19T18:34:08.975Z,34.97
2023-05-19T18:37:12.833Z,34.08
2023-05-19T18:40:16.429Z,37.25
2023-05-19T18:43:20.626Z,34.83
2023-05-19T18:46:26.516Z,36.05
2023-05-19T18:49:30.283Z,40.85
2023-05-19T18:52:34.509Z,47.42
2023-05-19T18:55:39.432Z,49.25
2023-05-19T18:58:45.959Z,59.35
2023-05-19T19:01:51.658Z,42.75
2023-05-19T19:04:55.196Z,39.25
2023-05-19T19:07:59.784Z,45.47
2023-05-19T19:11:13.003Z,44.67
2023-05-19T19:14:18.416Z,43.28
2023-05-19T19:17:24.844Z,41.60
2023-05-19T19:20:29.153Z,41.80
2023-05-19T19:23:34.763Z,40.92
2023-05-19T19:26:38.482Z,45.40
2023-05-19T19:29:41.739Z,43.80
2023-05-19T19:32:46.492Z,44.45
2023-05-19T19:35:49.743Z,43.60
2023-05-19T19:38:53.710Z,39.38
2023-05-19T19:41:57.374Z,45.72
2023-05-19T19:45:01.389Z,50.22
2023-05-19T19:48:07.311Z,55.65
2023-05-19T19:51:13.290Z,51.22
2023-05-19T19:54:17.019Z,52.22
2023-05-19T19:57:20.708Z,63.38
2023-05-19T20:00:24.522Z,54.15
2023-05-19T20:03:29.643Z,51.67
2023-05-19T20:06:34.535Z,48.60
2023-05-19T20:09:38.104Z,46.40
2023-05-19T20:12:41.543Z,61.03
2023-05-19T20:15:45.666Z,62.25
2023-05-19T20:18:50.675Z,77.43
2023-05-19T20:21:54.071Z,64.88
2023-05-19T20:24:57.666Z,65.97
2023-05-19T20:28:02.237Z,64.50
2023-05-19T20:31:08.042Z,57.67
2023-05-19T20:34:12.833Z,60.60
2023-05-19T20:37:17.368Z,60.03
2023-05-19T20:40:20.758Z,58.28
2023-05-19T20:43:24.044Z,58.08
2023-05-19T20:46:29.507Z,65.80
2023-05-19T20:49:34.451Z,57.42
2023-05-19T20:52:37.777Z,62.95
2023-05-19T20:55:41.288Z,59.95
2023-05-19T20:58:44.520Z,57.33
2023-05-19T21:01:48.104Z,53.38
2023-05-19T21:04:53.167Z,55.50
2023-05-19T21:07:57.718Z,56.85
2023-05-19T21:11:01.066Z,59.70
2023-05-19T21:14:05.499Z,59.97
2023-05-19T21:17:09.023Z,57.95
2023-05-19T21:20:14.477Z,62.97
2023-05-19T21:23:17.953Z,58.70
2023-05-19T21:26:21.675Z,73.35
2023-05-19T21:29:25.950Z,66.07
2023-05-19T21:32:29.698Z,63.00
2023-05-19T21:35:34.545Z,67.28
2023-05-19T21:38:38.223Z,61.65
2023-05-19T21:41:41.471Z,57.95
2023-05-19T21:44:44.753Z,63.63
2023-05-19T21:47:48.018Z,64.45
2023-05-19T21:50:55.409Z,61.90
2023-05-19T21:53:58.778Z,59.95
2023-05-19T21:57:02.366Z,57.08
2023-05-19T22:00:07.860Z,60.95
2023-05-19T22:03:15.319Z,58.17
2023-05-19T22:06:20.043Z,48.95
2023-05-19T22:09:23.336Z,56.25
2023-05-19T22:12:26.692Z,58.60
2023-05-19T22:15:29.979Z,59.13
2023-05-19T22:18:33.218Z,60.65
2023-05-19T22:21:38.080Z,51.03
2023-05-19T22:24:41.334Z,49.15
2023-05-19T22:27:44.692Z,58.00
2023-05-19T22:30:47.948Z,51.72
2023-05-19T22:33:51.312Z,52.45
2023-05-19T22:36:55.944Z,60.00
2023-05-19T22:39:59.251Z,49.47
2023-05-19T22:43:02.521Z,54.00
2023-05-19T22:46:06.250Z,48.45
2023-05-19T22:49:09.613Z,50.25
2023-05-19T22:52:14.746Z,54.58
2023-05-19T22:55:18.367Z,52.17
2023-05-19T22:58:21.594Z,55.58
2023-05-19T23:01:24.949Z,58.08
2023-05-19T23:04:30.926Z,51.58
2023-05-19T23:07:35.995Z,52.83
2023-05-19T23:10:39.386Z,52.05
2023-05-19T23:13:42.701Z,51.80
2023-05-19T23:16:46.084Z,51.63
2023-05-19T23:19:49.297Z,58.78
2023-05-19T23:22:54.243Z,62.55
2023-05-19T23:25:57.583Z,56.55
2023-05-19T23:29:00.916Z,49.40
2023-05-19T23:32:04.333Z,48.30
2023-05-19T23:35:12.622Z,55.63
2023-05-19T23:38:17.504Z,60.10
2023-05-19T23:41:21.199Z,59.67
2023-05-19T23:44:24.562Z,58.40
2023-05-19T23:47:28.179Z,56.00
2023-05-19T23:50:31.424Z,58.05
2023-05-19T23:53:36.055Z,59.20
2023-05-19T23:56:39.330Z,62.70
2023-05-19T23:59:43.120Z,62.95
